createdAt,value
2018-11-13T00:02:59.812Z,11.10
2018-11-13T00:05:26.536Z,11.13
2018-11-13T00:07:53.166Z,11.15
2018-11-13T00:10:19.673Z,11.30
2018-11-13T00:12:49.543Z,11.34
2018-11-13T00:15:16.020Z,11.09
2018-11-13T00:17:42.545Z,11.29
2018-11-13T00:20:08.991Z,11.25
2018-11-13T00:22:35.577Z,11.27
2018-11-13T00:25:02.229Z,11.36
2018-11-13T00:27:28.791Z,11.33
2018-11-13T00:29:55.495Z,11.25
2018-11-13T00:32:21.952Z,11.34
2018-11-13T00:34:48.432Z,11.21
2018-11-13T00:37:14.981Z,11.18
2018-11-13T00:39:41.461Z,11.13
2018-11-13T00:42:08.601Z,11.16
2018-11-13T00:44:35.090Z,11.22
2018-11-13T00:47:01.609Z,10.89
2018-11-13T00:49:28.145Z,10.82
2018-11-13T00:51:54.730Z,10.81
2018-11-13T00:54:21.399Z,10.89
2018-11-13T00:56:48.660Z,10.87
2018-11-13T00:59:15.151Z,10.99
2018-11-13T01:01:41.818Z,10.96
2018-11-13T01:04:08.278Z,10.53
2018-11-13T01:06:34.852Z,10.50
2018-11-13T01:09:01.405Z,10.64
2018-11-13T01:11:27.964Z,10.53
2018-11-13T01:13:54.427Z,10.65
2018-11-13T01:16:21.007Z,10.90
2018-11-13T01:18:47.723Z,11.39
2018-11-13T01:21:14.228Z,11.23
2018-11-13T01:23:40.803Z,11.29
2018-11-13T01:26:07.246Z,10.80
2018-11-13T01:28:33.706Z,10.93
2018-11-13T01:31:01.320Z,10.68
2018-11-13T01:33:28.236Z,10.49
2018-11-13T01:35:55.238Z,10.61
2018-11-13T01:38:23.231Z,10.23
2018-11-13T01:40:50.679Z,10.45
2018-11-13T01:43:17.850Z,10.40
2018-11-13T01:45:44.427Z,10.71
2018-11-13T01:48:12.044Z,11.01
2018-11-13T01:50:38.966Z,10.48
2018-11-13T01:53:06.614Z,10.08
2018-11-13T01:55:35.851Z,10.46
2018-11-13T01:58:02.775Z,10.79
2018-11-13T02:00:30.126Z,10.83
2018-11-13T02:02:59.075Z,10.44
2018-11-13T02:05:25.741Z,10.48
2018-11-13T02:07:52.793Z,10.13
2018-11-13T02:10:19.279Z,9.72
2018-11-13T02:12:45.985Z,10.13
2018-11-13T02:15:12.784Z,10.01
2018-11-13T02:17:40.960Z,10.39
2018-11-13T02:20:07.563Z,10.66
2018-11-13T02:22:34.390Z,10.85
2018-11-13T02:25:02.900Z,10.97
2018-11-13T02:27:29.728Z,11.06
2018-11-13T02:29:56.453Z,11.21
2018-11-13T02:32:23.050Z,10.88
2018-11-13T02:34:50.282Z,10.37
2018-11-13T02:37:16.862Z,10.41
2018-11-13T02:39:43.423Z,10.63
2018-11-13T02:42:11.871Z,10.77
2018-11-13T02:44:40.696Z,10.84
2018-11-13T02:47:09.127Z,10.74
2018-11-13T02:49:36.350Z,10.64
2018-11-13T02:52:03.575Z,10.43
2018-11-13T02:54:30.184Z,10.46
2018-11-13T02:56:57.697Z,10.56
2018-11-13T02:59:25.012Z,10.78
2018-11-13T03:01:52.514Z,10.51
2018-11-13T03:04:19.585Z,10.37
2018-11-13T03:06:46.117Z,10.53
2018-11-13T03:09:13.549Z,10.60
2018-11-13T03:11:42.822Z,10.62
2018-11-13T03:14:09.616Z,10.77
2018-11-13T03:16:36.801Z,10.71
2018-11-13T03:19:03.934Z,10.37
2018-11-13T03:21:30.694Z,10.28
2018-11-13T03:23:58.005Z,10.40
2018-11-13T03:26:25.098Z,10.59
2018-11-13T03:28:51.835Z,10.76
2018-11-13T03:31:19.006Z,10.83
2018-11-13T03:33:45.713Z,10.83
2018-11-13T03:36:13.119Z,10.83
2018-11-13T03:38:39.591Z,10.71
2018-11-13T03:41:06.179Z,10.77
2018-11-13T03:43:32.926Z,10.66
2018-11-13T03:45:59.414Z,10.52
2018-11-13T03:48:27.281Z,10.48
2018-11-13T03:50:53.785Z,10.30
2018-11-13T03:53:21.223Z,10.18
2018-11-13T03:55:48.399Z,10.30
2018-11-13T03:58:15.227Z,10.45
2018-11-13T04:00:43.357Z,10.35
2018-11-13T04:03:09.808Z,10.52
2018-11-13T04:05:37.687Z,10.37
2018-11-13T04:08:05.305Z,10.37
2018-11-13T04:10:32.439Z,10.38
2018-11-13T04:12:59.489Z,10.51
2018-11-13T04:15:26.658Z,10.53
2018-11-13T04:17:53.815Z,10.24
2018-11-13T04:20:21.171Z,10.08
2018-11-13T04:22:48.566Z,10.16
2018-11-13T04:25:15.915Z,10.17
2018-11-13T04:27:44.316Z,10.18
2018-11-13T04:30:13.371Z,10.42
2018-11-13T04:32:42.031Z,10.49
2018-11-13T04:35:09.207Z,10.45
2018-11-13T04:37:38.022Z,10.42
2018-11-13T04:40:06.498Z,10.46
2018-11-13T04:42:32.988Z,10.19
2018-11-13T04:45:00.249Z,10.14
2018-11-13T04:47:28.843Z,10.26
2018-11-13T04:49:56.744Z,10.10
2018-11-13T04:52:23.887Z,10.19
2018-11-13T04:54:51.601Z,10.17
2018-11-13T04:57:18.320Z,10.42
2018-11-13T04:59:47.221Z,10.62
2018-11-13T05:02:15.431Z,10.25
2018-11-13T05:04:44.464Z,10.07
2018-11-13T05:07:12.683Z,9.91
2018-11-13T05:09:40.769Z,9.88
2018-11-13T05:12:08.194Z,9.99
2018-11-13T05:14:36.082Z,9.97
2018-11-13T05:17:03.529Z,10.10
2018-11-13T05:19:30.662Z,9.80
2018-11-13T05:21:58.236Z,9.47
2018-11-13T05:24:26.721Z,9.51
2018-11-13T05:26:53.894Z,9.60
2018-11-13T05:29:22.724Z,9.59
2018-11-13T05:31:51.183Z,9.66
2018-11-13T05:34:17.703Z,9.90
2018-11-13T05:36:46.376Z,9.50
2018-11-13T05:39:13.014Z,9.48
2018-11-13T05:41:39.789Z,9.63
2018-11-13T05:44:07.731Z,9.77
2018-11-13T05:46:35.849Z,9.59
2018-11-13T05:49:04.668Z,10.19
2018-11-13T05:51:32.123Z,10.07
2018-11-13T05:53:59.546Z,9.91
2018-11-13T05:56:26.838Z,9.80
2018-11-13T05:58:53.985Z,9.92
2018-11-13T06:01:23.316Z,9.77
2018-11-13T06:03:51.943Z,9.61
2018-11-13T06:06:20.699Z,9.60
2018-11-13T06:08:48.842Z,9.81
2018-11-13T06:11:16.218Z,9.93
2018-11-13T06:13:42.714Z,9.99
2018-11-13T06:16:10.293Z,9.86
2018-11-13T06:18:38.326Z,9.91
2018-11-13T06:21:06.774Z,9.91
2018-11-13T06:23:34.313Z,9.86
2018-11-13T06:26:03.130Z,10.32
2018-11-13T06:28:33.440Z,10.36
2018-11-13T06:31:00.590Z,10.46
2018-11-13T06:33:27.816Z,10.56
2018-11-13T06:35:55.838Z,10.41
2018-11-13T06:38:23.842Z,10.22
2018-11-13T06:40:50.936Z,10.08
2018-11-13T06:43:19.828Z,10.07
2018-11-13T06:45:46.288Z,9.94
2018-11-13T06:48:13.747Z,10.05
2018-11-13T06:50:41.614Z,10.34
2018-11-13T06:53:09.675Z,10.71
2018-11-13T06:55:39.574Z,11.03
2018-11-13T06:58:07.080Z,11.28
2018-11-13T07:00:33.540Z,11.31
2018-11-13T07:03:01.119Z,11.44
2018-11-13T07:05:30.129Z,11.38
2018-11-13T07:07:56.952Z,11.20
2018-11-13T07:10:24.611Z,11.13
2018-11-13T07:12:52.578Z,11.50
2018-11-13T07:15:19.454Z,11.86
2018-11-13T07:17:48.950Z,11.63
2018-11-13T07:20:16.731Z,11.71
2018-11-13T07:22:44.892Z,12.00
2018-11-13T07:25:11.575Z,12.09
2018-11-13T07:27:40.236Z,12.37
2018-11-13T07:30:09.708Z,12.52
2018-11-13T07:32:36.485Z,12.72
2018-11-13T07:35:03.107Z,12.48
2018-11-13T07:37:31.370Z,12.66
2018-11-13T07:39:59.887Z,12.67
2018-11-13T07:42:28.043Z,12.62
2018-11-13T07:44:55.956Z,12.99
2018-11-13T07:47:23.540Z,13.02
2018-11-13T07:49:50.964Z,12.85
2018-11-13T07:52:18.478Z,12.96
2018-11-13T07:54:46.623Z,13.27
2018-11-13T07:57:14.107Z,13.42
2018-11-13T07:59:42.391Z,13.51
2018-11-13T08:02:09.342Z,13.66
2018-11-13T08:04:35.790Z,13.67
2018-11-13T08:07:07.638Z,13.78
2018-11-13T08:09:35.447Z,13.84
2018-11-13T08:12:03.719Z,13.77
2018-11-13T08:14:32.023Z,13.88
2018-11-13T08:16:59.315Z,14.16
2018-11-13T08:19:27.435Z,14.11
2018-11-13T08:21:54.073Z,14.31
2018-11-13T08:24:20.937Z,14.21
2018-11-13T08:26:47.631Z,14.34
2018-11-13T08:29:15.578Z,14.58
2018-11-13T08:31:42.800Z,14.78
2018-11-13T08:34:10.824Z,14.46
2018-11-13T08:36:40.512Z,14.82
2018-11-13T08:39:09.180Z,14.94
2018-11-13T08:41:36.025Z,15.07
2018-11-13T08:44:03.257Z,14.96
2018-11-13T08:46:30.129Z,15.24
2018-11-13T08:51:32.616Z,15.37
2018-11-13T08:53:59.989Z,15.02
2018-11-13T08:56:26.486Z,15.31
2018-11-13T08:58:53.999Z,15.09
2018-11-13T09:01:21.632Z,15.43
2018-11-13T09:03:48.130Z,15.69
2018-11-13T09:08:46.683Z,16.45
2018-11-13T09:11:14.296Z,16.48
2018-11-13T09:13:43.036Z,16.13
2018-11-13T09:16:10.637Z,16.19
2018-11-13T09:18:39.387Z,16.38
2018-11-13T09:21:05.866Z,16.75
2018-11-13T09:23:32.679Z,16.88
2018-11-13T09:26:00.294Z,16.97
2018-11-13T09:28:27.741Z,16.80
2018-11-13T09:30:56.675Z,16.45
2018-11-13T09:33:25.058Z,16.27
2018-11-13T09:35:51.897Z,16.17
2018-11-13T09:38:19.404Z,16.60
2018-11-13T09:40:45.884Z,17.03
2018-11-13T09:43:13.802Z,17.30
2018-11-13T09:45:41.115Z,17.71
2018-11-13T09:48:09.205Z,18.36
2018-11-13T09:50:36.331Z,18.38
2018-11-13T09:53:02.888Z,18.29
2018-11-13T09:55:30.307Z,18.49
2018-11-13T09:57:58.481Z,18.53
2018-11-13T10:03:00.176Z,18.97
2018-11-13T10:05:26.139Z,18.54
2018-11-13T10:07:52.865Z,18.58
2018-11-13T10:10:24.524Z,18.88
2018-11-13T10:12:51.724Z,18.61
2018-11-13T10:15:19.954Z,18.61
2018-11-13T10:17:48.171Z,19.03
2018-11-13T10:20:16.491Z,19.34
2018-11-13T10:22:43.643Z,19.37
2018-11-13T10:25:11.461Z,19.53
2018-11-13T10:27:40.736Z,19.40
2018-11-13T10:30:08.570Z,19.70
2018-11-13T10:32:36.409Z,19.67
2018-11-13T10:35:03.622Z,19.61
2018-11-13T10:37:30.770Z,19.95
2018-11-13T10:39:58.141Z,19.40
2018-11-13T10:42:26.459Z,19.57
2018-11-13T10:44:54.241Z,19.81
2018-11-13T10:47:22.780Z,19.57
2018-11-13T10:49:50.711Z,19.53
2018-11-13T10:52:17.743Z,19.61
2018-11-13T10:54:45.095Z,19.26
2018-11-13T10:57:12.864Z,19.33
2018-11-13T10:59:40.695Z,19.19
2018-11-13T11:02:09.421Z,19.12
2018-11-13T11:04:37.376Z,19.22
2018-11-13T11:07:04.478Z,18.80
2018-11-13T11:09:32.352Z,19.10
2018-11-13T11:11:59.765Z,19.50
2018-11-13T11:14:27.188Z,19.38
2018-11-13T11:16:54.377Z,19.22
2018-11-13T11:19:22.693Z,19.32
2018-11-13T11:21:51.369Z,19.04
2018-11-13T11:24:18.608Z,19.01
2018-11-13T11:26:46.249Z,18.84
2018-11-13T11:29:15.035Z,18.17
2018-11-13T11:31:41.988Z,18.41
2018-11-13T11:34:10.270Z,19.12
2018-11-13T11:36:36.804Z,18.90
2018-11-13T11:39:04.941Z,18.85
2018-11-13T11:44:03.019Z,18.99
2018-11-13T11:46:29.602Z,19.36
2018-11-13T11:54:00.662Z,18.87
2018-11-13T11:56:27.731Z,19.13
2018-11-13T11:58:56.973Z,18.86
2018-11-13T12:01:25.549Z,19.30
2018-11-13T12:06:24.628Z,19.03
2018-11-13T12:08:53.606Z,19.00
2018-11-13T12:11:20.997Z,19.46
2018-11-13T12:13:49.463Z,19.28
2018-11-13T12:16:16.308Z,19.57
2018-11-13T12:18:43.294Z,19.54
2018-11-13T12:21:10.195Z,19.44
2018-11-13T12:23:39.225Z,19.49
2018-11-13T12:26:06.666Z,19.93
2018-11-13T12:28:34.037Z,20.00
2018-11-13T12:31:02.297Z,19.79
2018-11-13T12:33:29.952Z,20.01
2018-11-13T12:35:57.424Z,19.87
2018-11-13T12:38:25.716Z,19.65
2018-11-13T12:40:52.910Z,19.54
2018-11-13T12:43:22.078Z,19.82
2018-11-13T12:45:50.526Z,20.32
2018-11-13T12:48:18.367Z,20.57
2018-11-13T12:50:45.645Z,20.46
2018-11-13T12:53:13.190Z,19.71
2018-11-13T12:55:41.728Z,19.24
2018-11-13T12:58:09.741Z,19.26
2018-11-13T13:00:37.141Z,19.29
2018-11-13T13:03:05.320Z,19.21
2018-11-13T13:05:34.066Z,19.57
2018-11-13T13:08:01.825Z,19.82
2018-11-13T13:10:29.325Z,20.27
2018-11-13T13:12:56.990Z,19.98
2018-11-13T13:15:23.450Z,19.81
2018-11-13T13:17:51.254Z,20.14
2018-11-13T13:20:19.620Z,20.30
2018-11-13T13:22:48.559Z,20.00
2018-11-13T13:25:16.907Z,19.93
2018-11-13T13:27:46.834Z,19.64
2018-11-13T13:30:14.852Z,19.83
2018-11-13T13:32:41.816Z,20.11
2018-11-13T13:35:09.301Z,19.79
2018-11-13T13:37:37.928Z,19.25
2018-11-13T13:40:06.160Z,19.45
2018-11-13T13:42:35.464Z,19.75
2018-11-13T13:45:04.704Z,19.72
2018-11-13T13:47:34.256Z,19.96
2018-11-13T13:50:04.852Z,19.91
2018-11-13T13:52:34.294Z,20.22
2018-11-13T13:55:02.583Z,20.34
2018-11-13T13:57:29.949Z,20.31
2018-11-13T13:59:56.483Z,20.26
2018-11-13T14:02:24.231Z,19.95
2018-11-13T14:04:52.123Z,19.89
2018-11-13T14:07:19.900Z,19.80
2018-11-13T14:09:47.127Z,19.75
2018-11-13T14:12:13.597Z,19.49
2018-11-13T14:14:41.243Z,19.33
2018-11-13T14:17:09.114Z,19.21
2018-11-13T14:19:36.657Z,19.33
2018-11-13T14:22:04.890Z,19.60
2018-11-13T14:24:32.076Z,19.62
2018-11-13T14:26:58.705Z,19.54
2018-11-13T14:29:25.222Z,19.40
2018-11-13T14:31:51.860Z,19.33
2018-11-13T14:34:20.695Z,19.54
2018-11-13T14:36:47.749Z,19.42
2018-11-13T14:39:15.113Z,19.24
2018-11-13T14:41:42.537Z,18.74
2018-11-13T14:44:10.132Z,18.61
2018-11-13T14:46:38.667Z,18.48
2018-11-13T14:49:05.871Z,18.41
2018-11-13T14:54:06.381Z,18.53
2018-11-13T14:56:33.216Z,18.55
2018-11-13T14:59:01.313Z,18.50
2018-11-13T15:01:29.487Z,18.24
2018-11-13T15:03:56.639Z,18.16
2018-11-13T15:06:23.283Z,18.49
2018-11-13T15:08:50.305Z,18.40
2018-11-13T15:11:18.727Z,18.24
2018-11-13T15:13:47.371Z,18.26
2018-11-13T15:16:15.033Z,17.89
2018-11-13T15:18:41.791Z,17.70
2018-11-13T15:21:08.633Z,17.76
2018-11-13T15:23:37.279Z,17.66
2018-11-13T15:26:04.925Z,17.66
2018-11-13T15:28:32.235Z,17.58
2018-11-13T15:31:00.545Z,17.35
2018-11-13T15:33:28.180Z,17.57
2018-11-13T15:35:54.780Z,17.72
2018-11-13T15:38:22.483Z,17.72
2018-11-13T15:40:50.662Z,17.77
2018-11-13T15:43:17.515Z,17.71
2018-11-13T15:45:46.238Z,17.62
2018-11-13T15:48:13.231Z,17.35
2018-11-13T15:50:41.998Z,17.41
2018-11-13T15:53:08.660Z,17.50
2018-11-13T15:55:37.349Z,17.32
2018-11-13T15:58:05.216Z,17.24
2018-11-13T16:00:32.686Z,17.32
2018-11-13T16:03:00.876Z,17.64
2018-11-13T16:05:28.418Z,17.40
2018-11-13T16:07:56.070Z,17.35
2018-11-13T16:10:24.883Z,17.16
2018-11-13T16:12:51.793Z,17.48
2018-11-13T16:15:19.275Z,17.23
2018-11-13T16:17:46.715Z,17.07
2018-11-13T16:20:15.607Z,16.90
2018-11-13T16:22:43.041Z,16.87
2018-11-13T16:27:42.707Z,17.07
2018-11-13T16:30:10.778Z,17.07
2018-11-13T16:32:38.561Z,16.80
2018-11-13T16:35:05.866Z,16.93
2018-11-13T16:37:33.458Z,16.81
2018-11-13T16:40:00.064Z,17.07
2018-11-13T16:42:28.368Z,17.21
2018-11-13T16:44:56.407Z,17.20
2018-11-13T16:47:23.662Z,17.20
2018-11-13T16:49:51.263Z,17.17
2018-11-13T16:52:21.482Z,16.92
2018-11-13T16:57:22.409Z,16.87
2018-11-13T16:59:48.154Z,16.60
2018-11-13T17:02:15.466Z,16.59
2018-11-13T17:04:43.281Z,16.65
2018-11-13T17:07:11.240Z,16.52
2018-11-13T17:09:38.603Z,16.25
2018-11-13T17:12:05.165Z,16.27
2018-11-13T17:14:32.736Z,16.69
2018-11-13T17:17:01.386Z,16.64
2018-11-13T17:19:28.645Z,16.31
2018-11-13T17:21:57.434Z,16.67
2018-11-13T17:24:25.004Z,16.55
2018-11-13T17:26:54.264Z,16.48
2018-11-13T17:29:21.164Z,16.41
2018-11-13T17:31:48.700Z,16.65
2018-11-13T17:36:50.209Z,16.38
2018-11-13T17:39:17.726Z,16.10
2018-11-13T17:41:45.169Z,16.07
2018-11-13T17:44:12.417Z,16.02
2018-11-13T17:46:39.808Z,16.13
2018-11-13T17:49:07.544Z,16.25
2018-11-13T17:51:36.373Z,16.07
2018-11-13T17:54:03.657Z,15.87
2018-11-13T17:56:31.878Z,16.00
2018-11-13T17:58:59.652Z,15.77
2018-11-13T18:01:27.116Z,15.70
2018-11-13T18:03:53.879Z,15.81
2018-11-13T18:06:20.791Z,16.03
2018-11-13T18:08:48.657Z,15.99
2018-11-13T18:11:16.417Z,15.91
2018-11-13T18:13:43.695Z,15.74
2018-11-13T18:16:10.277Z,15.57
2018-11-13T18:18:37.556Z,15.74
2018-11-13T18:21:05.758Z,16.11
2018-11-13T18:23:33.872Z,15.71
2018-11-13T18:26:00.723Z,15.49
2018-11-13T18:28:28.076Z,15.60
2018-11-13T18:30:55.570Z,15.15
2018-11-13T18:33:22.122Z,15.11
2018-11-13T18:35:49.220Z,15.07
2018-11-13T18:38:16.687Z,15.06
2018-11-13T18:40:44.904Z,15.40
2018-11-13T18:43:12.747Z,15.45
2018-11-13T18:45:40.418Z,15.33
2018-11-13T18:48:07.434Z,15.39
2018-11-13T18:50:35.349Z,15.27
2018-11-13T18:53:03.507Z,15.03
2018-11-13T18:55:32.053Z,15.09
2018-11-13T18:57:58.890Z,15.53
2018-11-13T19:00:25.397Z,15.59
2018-11-13T19:02:52.620Z,15.68
2018-11-13T19:05:20.849Z,15.47
2018-11-13T19:07:47.768Z,15.32
2018-11-13T19:10:15.021Z,15.25
2018-11-13T19:12:44.129Z,15.07
2018-11-13T19:15:11.923Z,15.46
2018-11-13T19:17:40.000Z,15.33
2018-11-13T19:20:07.534Z,15.35
2018-11-13T19:22:34.710Z,14.99
2018-11-13T19:27:35.605Z,14.82
2018-11-13T19:30:03.778Z,14.85
2018-11-13T19:32:31.664Z,14.78
2018-11-13T19:34:59.397Z,14.66
2018-11-13T19:39:58.865Z,14.63
2018-11-13T19:42:26.756Z,14.33
2018-11-13T19:44:54.999Z,14.61
2018-11-13T19:47:24.286Z,14.42
2018-11-13T19:52:25.835Z,14.14
2018-11-13T19:54:53.528Z,14.03
2018-11-13T19:57:20.790Z,14.19
2018-11-13T19:59:49.015Z,13.98
2018-11-13T20:02:19.833Z,13.91
2018-11-13T20:04:47.815Z,13.99
2018-11-13T20:07:15.437Z,14.24
2018-11-13T20:09:42.266Z,14.20
2018-11-13T20:12:12.196Z,14.22
2018-11-13T20:14:40.263Z,14.04
2018-11-13T20:17:07.802Z,14.32
2018-11-13T20:19:36.912Z,14.52
2018-11-13T20:22:06.217Z,14.75
2018-11-13T20:24:34.442Z,14.65
2018-11-13T20:27:01.517Z,14.93
2018-11-13T20:29:30.532Z,14.98
2018-11-13T20:31:57.899Z,14.95
2018-11-13T20:34:26.148Z,15.02
2018-11-13T20:36:55.677Z,15.10
2018-11-13T20:39:22.722Z,14.96
2018-11-13T20:41:49.689Z,15.29
2018-11-13T20:44:18.233Z,15.25
2018-11-13T20:46:45.689Z,15.20
2018-11-13T20:49:14.377Z,15.07
2018-11-13T20:51:42.602Z,15.25
2018-11-13T20:54:13.456Z,15.33
2018-11-13T20:56:41.696Z,15.24
2018-11-13T20:59:10.984Z,15.31
2018-11-13T21:01:38.479Z,15.61
2018-11-13T21:04:06.331Z,15.89
2018-11-13T21:06:33.509Z,15.74
2018-11-13T21:09:00.716Z,15.33
2018-11-13T21:11:29.607Z,15.13
2018-11-13T21:13:58.359Z,15.30
2018-11-13T21:16:26.222Z,15.40
2018-11-13T21:18:53.110Z,15.59
2018-11-13T21:21:19.577Z,15.86
2018-11-13T21:23:46.723Z,15.72
2018-11-13T21:26:14.373Z,15.68
2018-11-13T21:28:42.041Z,15.53
2018-11-13T21:31:09.307Z,15.49
2018-11-13T21:33:35.897Z,15.44
2018-11-13T21:36:03.455Z,15.62
2018-11-13T21:38:30.729Z,15.55
2018-11-13T21:40:58.603Z,15.59
2018-11-13T21:43:25.566Z,15.54
2018-11-13T21:45:58.328Z,15.56
2018-11-13T21:48:27.628Z,15.87
2018-11-13T21:50:55.278Z,15.62
2018-11-13T21:53:23.778Z,15.29
2018-11-13T21:55:51.028Z,15.22
2018-11-13T21:58:17.910Z,15.05
2018-11-13T22:00:45.633Z,15.62
2018-11-13T22:03:12.109Z,15.43
2018-11-13T22:05:40.747Z,15.26
2018-11-13T22:08:07.774Z,15.32
2018-11-13T22:10:35.771Z,15.34
2018-11-13T22:13:04.059Z,15.00
2018-11-13T22:15:31.337Z,15.14
2018-11-13T22:17:59.028Z,15.17
2018-11-13T22:20:27.852Z,15.34
2018-11-13T22:22:55.400Z,15.08
2018-11-13T22:25:25.460Z,14.40
2018-11-13T22:27:53.254Z,14.00
2018-11-13T22:30:21.645Z,14.63
2018-11-13T22:32:48.800Z,14.76
2018-11-13T22:35:15.482Z,14.83
2018-11-13T22:37:44.062Z,14.81
2018-11-13T22:40:11.931Z,14.55
2018-11-13T22:42:39.683Z,14.70
2018-11-13T22:45:07.674Z,14.84
2018-11-13T22:47:34.765Z,15.23
2018-11-13T22:50:01.225Z,15.27
2018-11-13T22:52:27.821Z,15.06
2018-11-13T22:54:55.671Z,15.27
2018-11-13T22:57:23.957Z,15.48
2018-11-13T22:59:51.512Z,15.25
2018-11-13T23:02:18.099Z,15.20
2018-11-13T23:04:45.859Z,15.01
2018-11-13T23:07:12.899Z,15.19
2018-11-13T23:09:41.872Z,15.32
2018-11-13T23:12:12.364Z,15.36
2018-11-13T23:14:39.649Z,15.25
2018-11-13T23:17:06.765Z,14.90
2018-11-13T23:19:33.933Z,14.82
2018-11-13T23:22:01.006Z,15.25
2018-11-13T23:27:02.196Z,15.32
2018-11-13T23:29:29.210Z,15.32
2018-11-13T23:31:58.791Z,15.38
2018-11-13T23:34:27.678Z,15.41
2018-11-13T23:36:55.916Z,15.26
2018-11-13T23:39:22.353Z,15.06
2018-11-13T23:41:50.432Z,15.03
2018-11-13T23:44:18.726Z,14.79
2018-11-13T23:46:47.397Z,14.71
2018-11-13T23:49:16.001Z,14.92
2018-11-13T23:51:44.160Z,14.94
2018-11-13T23:54:10.917Z,14.99
2018-11-13T23:56:38.815Z,14.86
2018-11-13T23:59:08.888Z,14.58
